Imperial, MO (63052)

4:29 PM CST on December 04, 2016 (GMT -0600)
Imperial - Wellington Subdivision | | Change Station

Elev 479 ft 38.37 °N, 90.38 °W | Updated 5 seconds ago

Overcast
Overcast
41.7 °F
Feels Like 38 °F
N
5.8
Wind Variable Wind from NW
Gusts 5.8 mph

Today
High -- | Low -- °F
--% Chance of Precip.
Yesterday
High -- | Low -- °F
Precip. -- in
Pressure 29.96 in
Visibility 10.0 miles
Clouds Overcast 1800 ft
Windchill 38 °F
Dew Point 39 °F
Humidity 91%
Rainfall 0.27 in
Snow Depth Not available.
7:02 AM 4:40 PM
Waxing Crescent, 26% visible
METAR KCPS 042153Z 27008KT 10SM OVC018 05/02 A2996 RMK AO2 SLP146 T00500017
Pressure 29.96 in
Visibility 10.0 miles
Clouds Overcast 1800 ft
Windchill 38 °F
Dew Point 39 °F
Humidity 91%
Rainfall 0.27 in
Snow Depth Not available.
7:02 AM 4:40 PM
Waxing Crescent, 26% visible
METAR KCPS 042153Z 27008KT 10SM OVC018 05/02 A2996 RMK AO2 SLP146 T00500017

10-Day Weather Forecast

Almanac

Astronomy

Dec. 04, 2016 Rise Set
Actual Time
Civil Twilight
Nautical Twilight
Astronomical Twilight
Moon
Length of Visible Light
Length of Day
Tomorrow will be .
, % of the Moon is Illuminated

Today's Extremes

State Highs State Lows

Community

WunderPhotos

Upload Photos

1,955,684 photos uploaded!

WunderBlog® & News

Nearby

Air Quality

  Air Quality AQ Index Pollutant
Not available.

Snow Depth

Station Depth Elevation

Earthquake Activity

City Distance Mag. Time & Date
Minimum magnitude displayed is 2.5.

Coastal Water Temperatures

Place Temperature

Stations

Nearby Weather Stations

Station Location Temp. Windchill Dew Point Humidity Wind Precip. Elev Updated Type
                   

Watches & Warnings

There are currently no watches in effect.